Time;durP1;ratioP1;P1;durP2;ratioP2;P2;SDS_P1;SDS_P2;PMS_P1;PMS_P2;Temp;Humidity;BMP_temperature;BMP_pressure;BME280_temperature;BME280_humidity;BME280_pressure;Samples;Min_cycle;Max_cycle;Signal;HPM_P1;HPM_P2
2023/02/08 00:00:45;;;;;;;63.20;29.83;;;;;;;;;;5015486;28;20042;-74
2023/02/08 00:03:11;;;;;;;53.60;28.40;;;;;;;;;;5012066;28;20046;-73
2023/02/08 00:05:38;;;;;;;56.45;27.70;;;;;;;;;;5011319;28;20080;-73
2023/02/08 00:08:04;;;;;;;51.78;27.55;;;;;;;;;;5017587;28;20072;-73
2023/02/08 00:10:30;;;;;;;49.25;24.30;;;;;;;;;;5013717;28;20037;-73
2023/02/08 00:12:56;;;;;;;48.88;26.25;;;;;;;;;;5007679;28;20040;-73
2023/02/08 00:15:22;;;;;;;56.13;28.50;;;;;;;;;;5015529;28;20829;-74
2023/02/08 00:17:48;;;;;;;57.38;26.90;;;;;;;;;;5013268;28;20930;-73
2023/02/08 00:20:14;;;;;;;46.35;24.85;;;;;;;;;;5013816;28;20044;-74
2023/02/08 00:22:40;;;;;;;52.58;27.88;;;;;;;;;;5019406;28;20063;-74
2023/02/08 00:25:07;;;;;;;52.50;28.52;;;;;;;;;;5017982;28;20075;-73
2023/02/08 00:27:33;;;;;;;52.80;26.88;;;;;;;;;;5013318;28;20033;-74
2023/02/08 00:29:59;;;;;;;56.83;29.92;;;;;;;;;;5011436;28;20037;-74
2023/02/08 00:32:25;;;;;;;57.20;29.40;;;;;;;;;;5014060;28;20033;-74
2023/02/08 00:34:51;;;;;;;52.35;26.27;;;;;;;;;;5014042;28;20095;-73
2023/02/08 00:37:17;;;;;;;51.22;26.85;;;;;;;;;;5018668;28;20160;-73
2023/02/08 00:39:43;;;;;;;52.85;27.65;;;;;;;;;;5013529;28;20033;-73
2023/02/08 00:42:09;;;;;;;53.33;26.20;;;;;;;;;;5019782;28;20042;-73
2023/02/08 00:44:35;;;;;;;49.28;24.35;;;;;;;;;;5014514;28;20076;-74
2023/02/08 00:47:01;;;;;;;53.35;27.35;;;;;;;;;;5011459;28;20034;-73
2023/02/08 00:49:27;;;;;;;50.53;27.10;;;;;;;;;;5008502;28;20875;-73
2023/02/08 00:51:53;;;;;;;45.80;26.45;;;;;;;;;;5010669;28;20038;-73
2023/02/08 00:54:20;;;;;;;45.00;24.73;;;;;;;;;;5016154;28;20033;-73
2023/02/08 00:56:46;;;;;;;44.25;24.40;;;;;;;;;;5004315;28;20029;-73
2023/02/08 00:59:13;;;;;;;39.60;21.65;;;;;;;;;;5015592;28;20057;-73
2023/02/08 01:01:39;;;;;;;35.15;21.13;;;;;;;;;;5019810;28;20034;-73
2023/02/08 01:04:06;;;;;;;44.50;22.23;;;;;;;;;;5015781;28;20125;-71
2023/02/08 01:06:32;;;;;;;37.97;19.55;;;;;;;;;;5023753;28;20371;-73
2023/02/08 01:08:58;;;;;;;36.13;20.77;;;;;;;;;;5014597;28;20269;-73
2023/02/08 01:11:24;;;;;;;36.67;19.08;;;;;;;;;;5018570;28;20603;-73
2023/02/08 01:13:53;;;;;;;34.33;19.75;;;;;;;;;;5019121;28;20037;-73
2023/02/08 01:16:20;;;;;;;38.55;19.13;;;;;;;;;;4995557;28;20157;-74
2023/02/08 01:18:47;;;;;;;34.08;18.10;;;;;;;;;;5015797;28;20037;-73
2023/02/08 01:21:14;;;;;;;35.78;19.30;;;;;;;;;;5014679;28;20032;-73
2023/02/08 01:23:41;;;;;;;31.88;17.60;;;;;;;;;;5019083;28;20033;-73
2023/02/08 01:26:08;;;;;;;32.40;18.52;;;;;;;;;;5012926;28;20034;-73
2023/02/08 01:28:34;;;;;;;36.78;21.35;;;;;;;;;;5016654;28;20029;-73
2023/02/08 01:31:03;;;;;;;41.20;22.15;;;;;;;;;;5013632;28;20079;-73
2023/02/08 01:33:29;;;;;;;39.28;21.30;;;;;;;;;;5019420;28;20042;-73
2023/02/08 01:35:55;;;;;;;36.30;19.48;;;;;;;;;;5014335;28;20417;-72
2023/02/08 01:38:21;;;;;;;34.95;19.27;;;;;;;;;;5017310;28;20031;-73
2023/02/08 01:40:47;;;;;;;44.45;23.00;;;;;;;;;;5013094;28;20897;-74
2023/02/08 01:43:20;;;;;;;41.78;21.92;;;;;;;;;;5014024;28;20129;-72
2023/02/08 01:45:45;;;;;;;;;;;;;;;;;;5018073;28;20379;-73
2023/02/08 01:48:14;;;;;;;39.95;20.35;;;;;;;;;;4999288;28;20040;-73
2023/02/08 01:50:43;;;;;;;37.85;19.95;;;;;;;;;;5020187;28;20037;-73
2023/02/08 01:53:10;;;;;;;39.63;21.45;;;;;;;;;;5016315;28;20424;-73
2023/02/08 01:55:38;;;;;;;35.97;19.23;;;;;;;;;;5018768;28;20596;-72
2023/02/08 01:58:06;;;;;;;38.45;21.40;;;;;;;;;;5020311;28;20061;-73
2023/02/08 02:00:32;;;;;;;36.13;19.08;;;;;;;;;;5023214;28;20144;-73
2023/02/08 02:03:00;;;;;;;37.28;21.15;;;;;;;;;;5018094;28;20717;-73
2023/02/08 02:05:29;;;;;;;38.55;21.33;;;;;;;;;;5009560;28;20044;-73
2023/02/08 02:07:56;;;;;;;33.63;18.85;;;;;;;;;;5014689;28;20872;-73
2023/02/08 02:10:24;;;;;;;41.47;22.45;;;;;;;;;;5014132;28;20137;-73
2023/02/08 02:12:51;;;;;;;38.92;21.30;;;;;;;;;;5013728;28;20389;-72
2023/02/08 02:15:18;;;;;;;40.15;22.05;;;;;;;;;;5013613;28;20056;-72
2023/02/08 02:17:44;;;;;;;37.03;20.13;;;;;;;;;;5019200;28;20040;-72
2023/02/08 02:20:16;;;;;;;37.88;20.42;;;;;;;;;;5016717;28;20021;-72
2023/02/08 02:23:14;;;;;;;43.58;22.02;;;;;;;;;;5054755;23;20061;-72
2023/02/08 02:25:43;;;;;;;45.20;22.50;;;;;;;;;;5063160;28;20040;-72
2023/02/08 02:28:28;;;;;;;42.40;23.58;;;;;;;;;;5058895;28;20064;-73
2023/02/08 02:31:06;;;;;;;38.95;20.45;;;;;;;;;;5061984;28;20071;-72
2023/02/08 02:33:49;;;;;;;42.10;21.88;;;;;;;;;;5063894;28;20016;-73
2023/02/08 02:36:18;;;;;;;41.03;21.55;;;;;;;;;;5061268;28;20039;-72
2023/02/08 02:38:44;;;;;;;40.80;21.40;;;;;;;;;;5056861;28;20020;-72
2023/02/08 02:43:40;;;;;;;44.55;23.13;;;;;;;;;;5058492;28;20484;-72
2023/02/08 02:44:04;;;;;;;40.55;21.33;;;;;;;;;;5058116;28;20028;-72
2023/02/08 02:46:39;;;;;;;43.20;21.75;;;;;;;;;;5063074;28;20028;-73
2023/02/08 02:49:08;;;;;;;36.90;19.88;;;;;;;;;;5062506;28;20051;-72
2023/02/08 02:51:45;;;;;;;40.80;21.63;;;;;;;;;;5055767;28;20045;-72
2023/02/08 02:54:38;;;;;;;39.75;23.10;;;;;;;;;;5058456;28;20028;-72
2023/02/08 02:57:06;;;;;;;39.20;20.75;;;;;;;;;;5051745;28;20087;-72
2023/02/08 02:59:33;;;;;;;43.67;22.98;;;;;;;;;;5061264;28;20048;-72
2023/02/08 03:01:59;;;;;;;40.42;22.88;;;;;;;;;;5063951;28;20056;-72
2023/02/08 03:04:31;;;;;;;52.97;24.98;;;;;;;;;;5061764;28;20373;-72
2023/02/08 03:07:16;;;;;;;49.45;22.88;;;;;;;;;;5062905;28;20036;-72
2023/02/08 03:10:20;;;;;;;46.35;23.88;;;;;;;;;;5057413;28;20109;-72
2023/02/08 03:13:05;;;;;;;50.30;23.75;;;;;;;;;;4942687;28;20047;-72
2023/02/08 03:15:40;;;;;;;39.00;21.52;;;;;;;;;;4944095;28;20035;-73
2023/02/08 03:18:25;;;;;;;46.03;23.70;;;;;;;;;;5015192;28;20059;-72
2023/02/08 03:21:00;;;;;;;39.70;23.20;;;;;;;;;;5058825;28;20032;-72
2023/02/08 03:23:38;;;;;;;44.33;23.77;;;;;;;;;;5045833;28;20080;-72
2023/02/08 03:26:13;;;;;;;46.30;24.05;;;;;;;;;;5057645;28;20052;-72
2023/02/08 03:28:48;;;;;;;47.72;25.83;;;;;;;;;;5061020;28;20124;-73
2023/02/08 03:31:17;;;;;;;50.67;24.45;;;;;;;;;;5059454;28;20052;-72
2023/02/08 03:33:56;;;;;;;49.65;24.63;;;;;;;;;;5054515;28;20387;-72
2023/02/08 03:36:38;;;;;;;48.17;24.00;;;;;;;;;;5050792;28;20040;-73
2023/02/08 03:39:08;;;;;;;43.95;22.63;;;;;;;;;;5058522;28;20040;-72
2023/02/08 03:41:36;;;;;;;42.03;21.95;;;;;;;;;;5057154;28;20032;-72
2023/02/08 03:44:05;;;;;;;44.53;24.58;;;;;;;;;;5055751;28;20038;-72
2023/02/08 03:46:33;;;;;;;42.00;24.40;;;;;;;;;;5058790;28;20078;-72
2023/02/08 03:49:02;;;;;;;46.63;23.42;;;;;;;;;;5055222;28;20115;-72
2023/02/08 03:51:29;;;;;;;41.78;22.30;;;;;;;;;;5059193;28;20041;-72
2023/02/08 03:53:57;;;;;;;46.58;21.63;;;;;;;;;;5064362;28;20056;-72
2023/02/08 03:56:34;;;;;;;48.47;25.60;;;;;;;;;;5060634;28;20041;-72
2023/02/08 03:59:04;;;;;;;41.38;22.15;;;;;;;;;;5056677;28;20445;-72
2023/02/08 04:01:35;;;;;;;41.45;21.25;;;;;;;;;;5059218;28;20029;-72
2023/02/08 04:04:01;;;;;;;44.33;21.83;;;;;;;;;;5062379;28;20024;-72
2023/02/08 04:06:27;;;;;;;40.42;20.40;;;;;;;;;;5057832;28;20032;-73
2023/02/08 04:08:54;;;;;;;40.42;21.85;;;;;;;;;;5042487;28;20120;-72
2023/02/08 04:11:20;;;;;;;37.72;18.63;;;;;;;;;;5060387;28;20063;-72
2023/02/08 04:13:46;;;;;;;36.20;19.98;;;;;;;;;;5058376;28;20099;-73
2023/02/08 04:16:13;;;;;;;36.38;17.90;;;;;;;;;;5054322;28;20048;-72
2023/02/08 04:18:39;;;;;;;36.85;17.95;;;;;;;;;;5060674;28;20490;-73
2023/02/08 04:21:05;;;;;;;33.42;18.08;;;;;;;;;;5057772;28;20078;-72
2023/02/08 04:23:31;;;;;;;33.60;17.95;;;;;;;;;;5034152;28;20068;-72
2023/02/08 04:25:57;;;;;;;31.90;17.02;;;;;;;;;;5052902;28;20024;-72
2023/02/08 04:28:23;;;;;;;31.50;17.45;;;;;;;;;;5058213;28;20039;-72
2023/02/08 04:30:49;;;;;;;33.92;17.85;;;;;;;;;;5060082;28;20032;-72
2023/02/08 04:33:15;;;;;;;36.10;19.52;;;;;;;;;;5045678;28;20098;-72
2023/02/08 04:35:42;;;;;;;33.30;18.67;;;;;;;;;;5056417;28;20031;-72
2023/02/08 04:38:08;;;;;;;34.05;19.05;;;;;;;;;;5058454;28;20033;-72
2023/02/08 04:40:34;;;;;;;31.15;18.08;;;;;;;;;;5054118;28;20024;-72
2023/02/08 04:43:01;;;;;;;37.50;20.60;;;;;;;;;;5054570;28;20071;-72
2023/02/08 04:45:28;;;;;;;34.92;19.23;;;;;;;;;;5051344;28;20023;-73
2023/02/08 04:47:54;;;;;;;34.58;19.15;;;;;;;;;;5056781;28;20032;-72
2023/02/08 04:50:20;;;;;;;33.05;17.40;;;;;;;;;;5058982;28;20123;-72
2023/02/08 04:52:48;;;;;;;37.05;18.50;;;;;;;;;;5061723;28;20458;-72
2023/02/08 04:55:14;;;;;;;35.72;19.80;;;;;;;;;;5030459;28;20074;-72
2023/02/08 04:57:40;;;;;;;38.58;22.27;;;;;;;;;;5058440;28;20047;-72
2023/02/08 05:00:06;;;;;;;37.15;22.30;;;;;;;;;;5054256;28;20459;-73
2023/02/08 05:02:32;;;;;;;41.75;22.13;;;;;;;;;;5057258;28;20497;-72
2023/02/08 05:04:58;;;;;;;37.15;19.95;;;;;;;;;;5057734;28;20146;-72
2023/02/08 05:07:24;;;;;;;43.58;22.10;;;;;;;;;;5060731;28;20029;-72
2023/02/08 05:09:50;;;;;;;38.03;20.90;;;;;;;;;;5061722;28;20044;-72
2023/02/08 05:12:16;;;;;;;38.00;21.48;;;;;;;;;;5054021;28;20068;-73
2023/02/08 05:14:42;;;;;;;38.42;19.75;;;;;;;;;;5059746;28;20107;-72
2023/02/08 05:17:08;;;;;;;42.15;20.48;;;;;;;;;;5040568;28;20040;-72
2023/02/08 05:19:34;;;;;;;43.15;22.10;;;;;;;;;;5035515;28;20116;-72
2023/02/08 05:22:00;;;;;;;43.03;22.67;;;;;;;;;;5062661;28;20129;-72
2023/02/08 05:24:26;;;;;;;39.42;21.55;;;;;;;;;;5058479;28;20526;-72
2023/02/08 05:26:52;;;;;;;37.75;21.10;;;;;;;;;;5038311;28;20139;-72
2023/02/08 05:29:18;;;;;;;35.40;19.30;;;;;;;;;;5041126;28;20037;-72
2023/02/08 05:31:44;;;;;;;39.00;20.15;;;;;;;;;;5055071;28;20045;-73
2023/02/08 05:34:11;;;;;;;43.60;21.10;;;;;;;;;;5058389;28;20068;-72
2023/02/08 05:36:37;;;;;;;40.30;21.85;;;;;;;;;;5051871;28;20040;-72
2023/02/08 05:39:03;;;;;;;38.33;22.20;;;;;;;;;;5042545;28;20028;-72
2023/02/08 05:41:29;;;;;;;36.70;21.00;;;;;;;;;;5062532;28;20574;-72
2023/02/08 05:43:55;;;;;;;34.50;19.83;;;;;;;;;;5063054;28;20028;-72
2023/02/08 05:46:21;;;;;;;35.30;20.08;;;;;;;;;;5063221;28;20528;-72
2023/02/08 05:48:47;;;;;;;39.47;21.70;;;;;;;;;;5063249;28;20128;-72
2023/02/08 05:51:13;;;;;;;36.45;21.63;;;;;;;;;;5043215;28;20037;-72
2023/02/08 05:53:39;;;;;;;38.15;20.33;;;;;;;;;;5061216;28;20037;-72
2023/02/08 05:56:05;;;;;;;39.03;22.23;;;;;;;;;;5062149;28;20055;-73
2023/02/08 05:58:31;;;;;;;36.83;20.55;;;;;;;;;;5055423;28;20568;-72
2023/02/08 06:00:57;;;;;;;34.90;21.35;;;;;;;;;;5060694;28;20043;-72
2023/02/08 06:03:24;;;;;;;36.20;19.90;;;;;;;;;;5061474;28;20029;-73
2023/02/08 06:05:50;;;;;;;33.88;19.42;;;;;;;;;;5059762;28;20028;-72
2023/02/08 06:08:16;;;;;;;51.13;26.13;;;;;;;;;;5062130;28;20033;-72
2023/02/08 06:10:42;;;;;;;46.28;25.00;;;;;;;;;;5058876;28;20050;-72
2023/02/08 06:13:08;;;;;;;44.33;25.25;;;;;;;;;;5064149;28;20378;-72
2023/02/08 06:15:34;;;;;;;43.05;27.02;;;;;;;;;;5062688;28;20481;-72
2023/02/08 06:18:00;;;;;;;46.13;26.10;;;;;;;;;;5056904;28;20043;-72
2023/02/08 06:20:26;;;;;;;46.60;25.83;;;;;;;;;;5058931;28;20041;-72
2023/02/08 06:22:52;;;;;;;45.10;23.73;;;;;;;;;;5061981;28;20083;-73
2023/02/08 06:25:18;;;;;;;40.45;22.13;;;;;;;;;;5045099;28;20071;-73
2023/02/08 06:27:44;;;;;;;42.60;25.15;;;;;;;;;;5061232;28;20021;-72
2023/02/08 06:30:10;;;;;;;40.05;22.13;;;;;;;;;;5061634;28;20036;-72
2023/02/08 06:32:36;;;;;;;38.67;20.63;;;;;;;;;;5062547;28;20037;-72
2023/02/08 06:35:03;;;;;;;39.67;20.60;;;;;;;;;;5061774;28;20027;-72
2023/02/08 06:37:29;;;;;;;34.85;19.58;;;;;;;;;;5059329;28;20036;-72
2023/02/08 06:39:55;;;;;;;34.72;20.15;;;;;;;;;;5062778;28;20550;-73
2023/02/08 06:42:21;;;;;;;35.20;20.88;;;;;;;;;;5055972;28;20051;-72
2023/02/08 06:44:48;;;;;;;33.63;19.08;;;;;;;;;;5060191;28;20032;-73
2023/02/08 06:47:15;;;;;;;31.88;18.45;;;;;;;;;;5057680;28;20398;-72
2023/02/08 06:49:41;;;;;;;31.73;17.67;;;;;;;;;;5053404;28;20032;-72
2023/02/08 06:52:07;;;;;;;31.33;18.85;;;;;;;;;;5056495;28;20086;-73
2023/02/08 06:54:33;;;;;;;34.10;19.10;;;;;;;;;;5057479;28;20036;-72
2023/02/08 06:56:59;;;;;;;40.20;21.33;;;;;;;;;;5059682;28;20033;-73
2023/02/08 06:59:25;;;;;;;34.92;20.10;;;;;;;;;;5057858;28;20475;-72
2023/02/08 07:01:54;;;;;;;34.83;19.77;;;;;;;;;;5062487;28;20648;-72
2023/02/08 07:04:23;;;;;;;30.50;18.25;;;;;;;;;;5057010;28;20502;-72
2023/02/08 07:06:49;;;;;;;35.75;19.60;;;;;;;;;;5041612;28;20493;-72
2023/02/08 07:09:16;;;;;;;28.48;16.75;;;;;;;;;;5060488;28;20098;-72
2023/02/08 07:11:42;;;;;;;31.42;18.52;;;;;;;;;;5057832;28;20043;-73
2023/02/08 07:14:11;;;;;;;29.58;17.08;;;;;;;;;;5059094;28;20474;-72
2023/02/08 07:16:37;;;;;;;29.58;17.65;;;;;;;;;;5056870;28;20074;-72
2023/02/08 07:19:03;;;;;;;32.80;16.05;;;;;;;;;;5054859;28;20041;-73
2023/02/08 07:21:29;;;;;;;25.58;14.40;;;;;;;;;;5061828;28;20078;-72
2023/02/08 07:23:55;;;;;;;27.02;15.48;;;;;;;;;;5059531;28;20037;-73
2023/02/08 07:26:21;;;;;;;30.38;16.27;;;;;;;;;;5062543;28;20041;-73
2023/02/08 07:28:47;;;;;;;27.23;14.93;;;;;;;;;;5045681;28;20037;-72
2023/02/08 07:31:14;;;;;;;25.10;15.18;;;;;;;;;;5054720;28;20123;-73
2023/02/08 07:33:41;;;;;;;26.85;15.15;;;;;;;;;;5053814;28;20024;-73
2023/02/08 07:36:07;;;;;;;36.03;17.55;;;;;;;;;;5059464;28;20028;-72
2023/02/08 07:38:34;;;;;;;36.15;19.40;;;;;;;;;;5055018;28;20061;-73
2023/02/08 07:41:01;;;;;;;38.08;16.98;;;;;;;;;;5058417;28;20126;-72
2023/02/08 07:43:27;;;;;;;31.15;15.50;;;;;;;;;;5058594;28;20096;-73
2023/02/08 07:45:53;;;;;;;32.22;17.40;;;;;;;;;;5056085;28;20033;-72
2023/02/08 07:48:19;;;;;;;38.97;18.40;;;;;;;;;;5060488;28;20078;-72
2023/02/08 07:50:45;;;;;;;36.80;19.63;;;;;;;;;;5059842;28;20575;-72
2023/02/08 07:53:11;;;;;;;35.47;17.95;;;;;;;;;;5055893;28;20041;-72
2023/02/08 07:55:37;;;;;;;31.50;16.33;;;;;;;;;;5061983;28;20882;-72
2023/02/08 07:58:03;;;;;;;32.30;16.98;;;;;;;;;;5057705;28;20024;-72
2023/02/08 08:00:30;;;;;;;28.60;17.40;;;;;;;;;;5060258;28;20048;-72
2023/02/08 08:02:56;;;;;;;31.63;17.60;;;;;;;;;;5059733;28;20119;-73
2023/02/08 08:05:22;;;;;;;27.90;14.32;;;;;;;;;;5060259;28;20116;-72
2023/02/08 08:07:48;;;;;;;26.65;14.20;;;;;;;;;;5058476;28;20025;-72
2023/02/08 08:10:14;;;;;;;29.58;16.38;;;;;;;;;;5057064;28;20037;-72
2023/02/08 08:12:40;;;;;;;28.70;15.27;;;;;;;;;;5054724;28;20048;-72
2023/02/08 08:15:06;;;;;;;37.08;14.52;;;;;;;;;;5061557;28;20040;-73
2023/02/08 08:17:32;;;;;;;29.67;14.93;;;;;;;;;;5058786;28;20033;-72
2023/02/08 08:19:58;;;;;;;25.63;15.07;;;;;;;;;;5061637;28;20527;-73
2023/02/08 08:22:24;;;;;;;21.50;12.02;;;;;;;;;;5052216;28;20055;-73
2023/02/08 08:24:50;;;;;;;22.33;11.02;;;;;;;;;;5053153;28;20454;-72
2023/02/08 08:27:16;;;;;;;20.88;10.23;;;;;;;;;;5057598;28;20029;-72
2023/02/08 08:29:42;;;;;;;22.08;10.70;;;;;;;;;;5056381;28;20035;-72
2023/02/08 08:32:08;;;;;;;22.80;11.80;;;;;;;;;;5056660;28;20029;-73
2023/02/08 08:34:34;;;;;;;20.38;9.85;;;;;;;;;;5055921;28;20033;-72
2023/02/08 08:37:01;;;;;;;26.27;10.88;;;;;;;;;;5063175;28;20111;-72
2023/02/08 08:39:27;;;;;;;27.88;11.85;;;;;;;;;;5056862;28;20090;-72
2023/02/08 08:41:54;;;;;;;26.05;13.13;;;;;;;;;;5052359;28;20035;-72
2023/02/08 08:44:20;;;;;;;23.42;13.80;;;;;;;;;;5059433;28;20037;-72
2023/02/08 08:46:46;;;;;;;31.70;15.38;;;;;;;;;;5060658;28;20037;-72
2023/02/08 08:49:12;;;;;;;37.53;19.45;;;;;;;;;;5059434;28;20051;-72
2023/02/08 08:51:37;;;;;;;42.80;21.88;;;;;;;;;;5059655;28;20166;-72
2023/02/08 08:54:04;;;;;;;46.58;20.88;;;;;;;;;;5061414;28;20815;-72
2023/02/08 08:56:31;;;;;;;42.40;21.50;;;;;;;;;;5059568;28;20052;-72
2023/02/08 08:58:57;;;;;;;38.00;20.40;;;;;;;;;;5054984;28;20135;-72
2023/02/08 09:01:23;;;;;;;35.42;19.75;;;;;;;;;;5057551;28;20051;-72
2023/02/08 09:03:49;;;;;;;41.60;21.08;;;;;;;;;;5056852;28;20032;-72
2023/02/08 09:06:15;;;;;;;40.53;20.88;;;;;;;;;;5052991;28;20633;-71
2023/02/08 09:08:42;;;;;;;32.75;17.20;;;;;;;;;;5056355;28;20035;-73
2023/02/08 09:11:09;;;;;;;37.03;18.58;;;;;;;;;;5055912;28;20029;-72
2023/02/08 09:13:36;;;;;;;27.83;16.70;;;;;;;;;;5058330;28;20517;-72
2023/02/08 09:16:09;;;;;;;34.05;16.92;;;;;;;;;;5063511;28;20028;-72
2023/02/08 09:18:35;;;;;;;39.53;16.65;;;;;;;;;;5063747;28;20077;-72
2023/02/08 09:21:09;;;;;;;33.38;18.08;;;;;;;;;;5062043;28;20365;-72
2023/02/08 09:23:35;;;;;;;29.60;17.52;;;;;;;;;;5063535;28;20095;-72
2023/02/08 09:26:02;;;;;;;24.45;15.20;;;;;;;;;;5055745;28;20028;-73
2023/02/08 09:28:28;;;;;;;29.85;18.13;;;;;;;;;;5059928;28;20080;-72
2023/02/08 09:30:54;;;;;;;34.47;17.05;;;;;;;;;;5057921;28;20036;-72
2023/02/08 09:33:20;;;;;;;32.97;15.88;;;;;;;;;;5063400;28;20044;-72
2023/02/08 09:35:46;;;;;;;31.38;17.95;;;;;;;;;;5058047;28;20039;-72
2023/02/08 09:38:12;;;;;;;41.90;19.13;;;;;;;;;;5059428;28;20392;-72
2023/02/08 09:40:53;;;;;;;41.95;19.98;;;;;;;;;;5059394;28;20040;-73
2023/02/08 09:43:24;;;;;;;33.47;19.55;;;;;;;;;;5064653;28;20457;-73
2023/02/08 09:45:56;;;;;;;39.40;22.13;;;;;;;;;;5061740;28;20064;-72
2023/02/08 09:48:33;;;;;;;43.03;25.38;;;;;;;;;;5058136;28;20028;-72
2023/02/08 09:51:03;;;;;;;44.00;27.98;;;;;;;;;;5060734;28;20379;-72
2023/02/08 09:53:34;;;;;;;36.75;20.83;;;;;;;;;;5062605;28;20033;-73
2023/02/08 09:56:03;;;;;;;33.88;19.73;;;;;;;;;;5061275;28;20616;-72
2023/02/08 09:58:45;;;;;;;41.38;23.42;;;;;;;;;;5062053;28;20028;-72
2023/02/08 10:01:17;;;;;;;35.35;20.95;;;;;;;;;;5059608;28;20530;-73
2023/02/08 10:03:44;;;;;;;37.80;22.15;;;;;;;;;;5062275;28;20054;-72
2023/02/08 10:06:14;;;;;;;34.38;20.90;;;;;;;;;;5061005;28;20454;-72
2023/02/08 10:08:41;;;;;;;33.90;21.27;;;;;;;;;;5062757;28;20032;-72
2023/02/08 10:11:34;;;;;;;38.92;23.40;;;;;;;;;;5058122;28;20407;-72
2023/02/08 10:14:12;;;;;;;33.67;22.85;;;;;;;;;;5056855;28;20032;-72
2023/02/08 10:16:47;;;;;;;33.97;22.27;;;;;;;;;;5059727;28;20061;-72
2023/02/08 10:19:19;;;;;;;31.63;22.63;;;;;;;;;;5062236;28;20024;-72
2023/02/08 10:21:51;;;;;;;70.57;37.83;;;;;;;;;;5061805;28;20132;-72
2023/02/08 10:24:36;;;;;;;88.10;41.10;;;;;;;;;;5059191;28;20033;-72
2023/02/08 10:27:05;;;;;;;65.57;33.00;;;;;;;;;;5060014;28;20029;-72
2023/02/08 10:29:31;;;;;;;45.17;25.45;;;;;;;;;;5058528;28;20056;-73
2023/02/08 10:32:06;;;;;;;35.03;23.70;;;;;;;;;;5065461;28;20079;-73
2023/02/08 10:34:40;;;;;;;38.30;26.70;;;;;;;;;;5058887;28;20064;-73
2023/02/08 10:37:26;;;;;;;38.90;24.35;;;;;;;;;;5063142;28;20119;-72
2023/02/08 10:39:53;;;;;;;40.22;25.92;;;;;;;;;;5063809;28;20033;-72
2023/02/08 10:42:21;;;;;;;40.45;23.88;;;;;;;;;;5058593;28;20123;-74
2023/02/08 10:44:56;;;;;;;37.85;22.42;;;;;;;;;;5062873;28;20020;-74
2023/02/08 10:47:34;;;;;;;33.90;23.15;;;;;;;;;;5063190;28;20054;-73
2023/02/08 10:50:07;;;;;;;34.88;22.60;;;;;;;;;;5058449;28;20032;-73
2023/02/08 10:52:33;;;;;;;35.65;22.58;;;;;;;;;;5065653;28;20392;-73
2023/02/08 10:54:59;;;;;;;38.33;22.90;;;;;;;;;;5059783;28;20093;-73
2023/02/08 10:57:28;;;;;;;35.95;22.02;;;;;;;;;;5065064;28;20462;-73
2023/02/08 11:00:20;;;;;;;36.60;23.13;;;;;;;;;;5060106;28;20043;-73
2023/02/08 11:02:48;;;;;;;32.63;22.05;;;;;;;;;;5055185;28;20818;-73
2023/02/08 11:05:16;;;;;;;32.42;22.20;;;;;;;;;;5061469;28;20028;-73
2023/02/08 11:07:42;;;;;;;40.42;22.55;;;;;;;;;;5061129;28;20033;-73
2023/02/08 11:10:21;;;;;;;36.70;23.42;;;;;;;;;;5044538;28;20111;-73
2023/02/08 11:12:54;;;;;;;35.47;23.45;;;;;;;;;;5059632;28;20135;-73
2023/02/08 11:15:22;;;;;;;31.77;21.27;;;;;;;;;;5058868;28;20041;-73
2023/02/08 11:17:53;;;;;;;33.83;22.25;;;;;;;;;;5060464;28;20033;-73
2023/02/08 11:20:26;;;;;;;32.63;22.02;;;;;;;;;;5057446;28;20034;-73
2023/02/08 11:22:52;;;;;;;36.03;22.05;;;;;;;;;;5060717;28;20052;-73
2023/02/08 11:25:32;;;;;;;32.80;21.42;;;;;;;;;;5059096;28;20429;-73
2023/02/08 11:27:59;;;;;;;31.30;21.58;;;;;;;;;;5058348;28;20025;-72
2023/02/08 11:30:25;;;;;;;33.00;21.65;;;;;;;;;;5064127;28;20848;-73
2023/02/08 11:33:10;;;;;;;30.73;20.75;;;;;;;;;;5059469;28;20032;-72
2023/02/08 11:35:36;;;;;;;31.13;21.00;;;;;;;;;;5063477;28;20036;-73
2023/02/08 11:38:02;;;;;;;32.15;21.08;;;;;;;;;;5059542;28;20416;-73
2023/02/08 11:40:36;;;;;;;29.25;20.50;;;;;;;;;;5058927;28;20654;-72
2023/02/08 11:43:02;;;;;;;35.53;24.30;;;;;;;;;;5058453;28;20127;-72
2023/02/08 11:45:29;;;;;;;31.48;20.60;;;;;;;;;;5057705;28;20085;-72
2023/02/08 11:47:56;;;;;;;32.60;21.90;;;;;;;;;;5059076;28;20048;-71
2023/02/08 11:50:26;;;;;;;37.15;23.95;;;;;;;;;;5054261;28;20028;-73
2023/02/08 11:52:56;;;;;;;36.75;22.35;;;;;;;;;;5055913;28;20390;-73
2023/02/08 11:55:24;;;;;;;38.40;23.83;;;;;;;;;;5056427;28;20029;-73
2023/02/08 11:57:55;;;;;;;32.13;20.63;;;;;;;;;;5052250;28;20076;-72
2023/02/08 12:00:26;;;;;;;33.05;21.95;;;;;;;;;;5060556;28;20047;-73
2023/02/08 12:02:58;;;;;;;35.85;23.25;;;;;;;;;;5061224;28;20051;-72
2023/02/08 12:05:33;;;;;;;36.50;23.10;;;;;;;;;;5060229;28;20024;-73
2023/02/08 12:08:26;;;;;;;32.95;21.77;;;;;;;;;;5058263;28;20040;-73
2023/02/08 12:10:55;;;;;;;31.58;21.65;;;;;;;;;;5049156;28;20045;-72
2023/02/08 12:13:21;;;;;;;32.55;22.60;;;;;;;;;;5062641;28;20041;-72
2023/02/08 12:16:02;;;;;;;34.50;21.58;;;;;;;;;;5062783;28;20030;-73
2023/02/08 12:18:47;;;;;;;30.52;21.02;;;;;;;;;;5066717;28;20071;-72
2023/02/08 12:21:24;;;;;;;30.75;21.20;;;;;;;;;;5057753;28;20215;-72
2023/02/08 12:24:08;;;;;;;31.50;20.70;;;;;;;;;;5059040;28;20053;-73
2023/02/08 12:27:06;;;;;;;32.55;20.40;;;;;;;;;;5056493;28;20033;-73
2023/02/08 12:29:47;;;;;;;37.25;23.58;;;;;;;;;;5003646;28;20041;-73
2023/02/08 12:32:17;;;;;;;34.05;21.10;;;;;;;;;;5060447;28;20060;-72
2023/02/08 12:34:46;;;;;;;35.25;22.10;;;;;;;;;;5060344;28;20044;-73
2023/02/08 12:43:02;;;;;;;34.17;22.85;;;;;;;;;;5056165;28;20087;-72
2023/02/08 12:45:47;;;;;;;34.22;23.20;;;;;;;;;;5060989;28;20684;-73
2023/02/08 12:48:22;;;;;;;36.70;22.98;;;;;;;;;;5055121;28;20036;-73
2023/02/08 12:51:17;;;;;;;36.00;23.40;;;;;;;;;;5056460;28;20385;-73
2023/02/08 12:53:46;;;;;;;38.33;22.80;;;;;;;;;;5036760;28;20098;-73
2023/02/08 12:56:15;;;;;;;33.95;21.85;;;;;;;;;;5059486;28;20033;-72
2023/02/08 12:58:44;;;;;;;32.10;20.27;;;;;;;;;;5063920;28;20173;-72
2023/02/08 13:01:25;;;;;;;33.63;22.25;;;;;;;;;;5059107;28;20831;-72
2023/02/08 13:03:55;;;;;;;28.80;19.35;;;;;;;;;;5057038;28;20046;-73
2023/02/08 13:06:23;;;;;;;30.88;20.23;;;;;;;;;;5057287;28;20680;-73
2023/02/08 13:08:52;;;;;;;31.60;20.13;;;;;;;;;;5061832;28;20032;-73
2023/02/08 13:11:21;;;;;;;32.47;20.30;;;;;;;;;;5055508;28;20041;-73
2023/02/08 13:13:55;;;;;;;33.10;20.15;;;;;;;;;;5064306;28;20028;-73
2023/02/08 13:16:25;;;;;;;29.95;19.73;;;;;;;;;;5051296;28;20037;-73
2023/02/08 13:19:06;;;;;;;32.63;18.10;;;;;;;;;;5062960;28;20362;-73
2023/02/08 13:21:36;;;;;;;30.00;18.88;;;;;;;;;;5056985;28;20624;-73
2023/02/08 13:24:05;;;;;;;30.55;18.15;;;;;;;;;;5058545;28;20769;-73
2023/02/08 13:26:33;;;;;;;28.08;18.08;;;;;;;;;;5053844;28;20033;-73
2023/02/08 13:29:01;;;;;;;27.40;18.02;;;;;;;;;;5061086;28;20029;-73
2023/02/08 13:31:27;;;;;;;30.52;18.65;;;;;;;;;;5054854;28;20470;-72
2023/02/08 13:34:06;;;;;;;30.48;18.80;;;;;;;;;;5043271;28;20031;-73
2023/02/08 13:36:34;;;;;;;24.55;16.42;;;;;;;;;;5061532;28;20959;-73
2023/02/08 13:39:01;;;;;;;26.70;18.67;;;;;;;;;;5051517;28;20040;-73
2023/02/08 13:41:28;;;;;;;32.90;20.17;;;;;;;;;;5061106;28;20044;-72
2023/02/08 13:43:57;;;;;;;28.65;17.98;;;;;;;;;;5062265;28;20060;-73
2023/02/08 13:46:24;;;;;;;27.75;18.67;;;;;;;;;;5059231;28;20381;-73
2023/02/08 13:48:55;;;;;;;27.98;17.65;;;;;;;;;;5060211;28;20033;-73
2023/02/08 13:51:30;;;;;;;28.92;18.15;;;;;;;;;;5055001;28;20790;-73
2023/02/08 13:53:56;;;;;;;28.17;16.33;;;;;;;;;;5058283;28;20112;-73
2023/02/08 13:56:35;;;;;;;26.88;17.33;;;;;;;;;;5056886;28;20132;-73
2023/02/08 13:59:01;;;;;;;27.35;17.52;;;;;;;;;;5060070;28;20049;-73
2023/02/08 14:01:36;;;;;;;26.83;16.77;;;;;;;;;;5056620;28;20047;-73
2023/02/08 14:04:11;;;;;;;25.65;16.25;;;;;;;;;;5065558;28;20032;-73
2023/02/08 14:06:44;;;;;;;26.38;17.20;;;;;;;;;;5060681;28;20040;-73
2023/02/08 14:09:13;;;;;;;31.27;18.20;;;;;;;;;;5061453;28;20434;-72
2023/02/08 14:11:58;;;;;;;30.52;17.65;;;;;;;;;;5058121;28;20028;-73
2023/02/08 14:14:32;;;;;;;28.92;16.55;;;;;;;;;;5056484;28;20079;-73
2023/02/08 14:17:04;;;;;;;28.40;15.35;;;;;;;;;;5044472;28;20534;-73
2023/02/08 14:19:31;;;;;;;26.88;15.65;;;;;;;;;;5056204;28;20136;-72
2023/02/08 14:22:01;;;;;;;22.27;15.20;;;;;;;;;;5058183;28;20056;-72
2023/02/08 14:24:32;;;;;;;25.80;15.07;;;;;;;;;;5058953;28;20025;-72
2023/02/08 14:27:25;;;;;;;26.23;15.60;;;;;;;;;;5060200;28;20029;-72
2023/02/08 14:29:59;;;;;;;27.95;15.35;;;;;;;;;;5048540;28;20040;-72
2023/02/08 14:32:26;;;;;;;29.30;17.55;;;;;;;;;;5064291;28;20047;-72
2023/02/08 14:35:28;;;;;;;29.10;16.52;;;;;;;;;;5055667;28;20075;-72
2023/02/08 14:38:12;;;;;;;27.90;16.40;;;;;;;;;;4986482;28;20046;-72